Duquesne, Missouri
Current Conditions -  °F | °C
As of 8:53 AM on Thursday 30 Oct 2014 (Local Time) from KJLN Reporting Station
Broken Clouds Broken Clouds  
Wind Chill: 57°   Ceiling: 10000
Heat Index: 57°   Visibility: 10mi
Dew Point: 41°   Wind: 17mph
Humidity: 55%   Direction: 210°SSW
Pressure: 30.08"   Gusts: NA
Location:  37.1074°N, 94.5218°W
Report Text: KJLN 301353Z 21015KT 10SM BKN100 14/05 A3008 RMK AO2 SLP183 T01390050
Loading
Personal Weather Stations






























Interactive Weather Map
Tropical Storm Tracking
New forecast layout! Learn more

10-Day Weather Forecast

Advertisements
Track Severe Weather on mobile